sensor_id;sensor_type;location;lat;lon;timestamp;P1;durP1;ratioP1;P2;durP2;ratioP2
21639;SDS011;10981;45.462;10.974;2022-08-19T00:02:03;7.28;;;2.00;;
21639;SDS011;10981;45.462;10.974;2022-08-19T00:04:32;5.18;;;1.58;;
21639;SDS011;10981;45.462;10.974;2022-08-19T00:07:04;7.97;;;1.67;;
21639;SDS011;10981;45.462;10.974;2022-08-19T00:09:33;4.90;;;1.70;;
21639;SDS011;10981;45.462;10.974;2022-08-19T00:12:02;9.80;;;3.17;;
21639;SDS011;10981;45.462;10.974;2022-08-19T00:14:30;8.63;;;2.83;;
21639;SDS011;10981;45.462;10.974;2022-08-19T00:16:59;5.78;;;2.55;;
21639;SDS011;10981;45.462;10.974;2022-08-19T00:19:28;8.25;;;3.80;;
21639;SDS011;10981;45.462;10.974;2022-08-19T00:21:56;7.53;;;2.92;;
21639;SDS011;10981;45.462;10.974;2022-08-19T00:24:25;12.05;;;2.60;;
21639;SDS011;10981;45.462;10.974;2022-08-19T00:26:54;5.57;;;2.40;;
21639;SDS011;10981;45.462;10.974;2022-08-19T00:29:43;5.22;;;2.47;;
21639;SDS011;10981;45.462;10.974;2022-08-19T00:32:11;9.50;;;2.40;;
21639;SDS011;10981;45.462;10.974;2022-08-19T00:34:44;8.52;;;1.90;;
21639;SDS011;10981;45.462;10.974;2022-08-19T00:37:12;4.72;;;2.30;;
21639;SDS011;10981;45.462;10.974;2022-08-19T00:39:40;5.03;;;2.35;;
21639;SDS011;10981;45.462;10.974;2022-08-19T00:42:08;13.85;;;2.17;;
21639;SDS011;10981;45.462;10.974;2022-08-19T00:44:36;6.05;;;2.95;;
21639;SDS011;10981;45.462;10.974;2022-08-19T00:47:05;3.35;;;2.17;;
21639;SDS011;10981;45.462;10.974;2022-08-19T00:49:43;7.15;;;3.50;;
21639;SDS011;10981;45.462;10.974;2022-08-19T00:52:19;8.80;;;3.00;;
21639;SDS011;10981;45.462;10.974;2022-08-19T00:54:51;5.25;;;2.88;;
21639;SDS011;10981;45.462;10.974;2022-08-19T00:57:22;6.32;;;2.97;;
21639;SDS011;10981;45.462;10.974;2022-08-19T01:00:03;9.48;;;3.05;;
21639;SDS011;10981;45.462;10.974;2022-08-19T01:02:39;4.18;;;2.30;;
21639;SDS011;10981;45.462;10.974;2022-08-19T01:05:13;10.82;;;3.38;;
21639;SDS011;10981;45.462;10.974;2022-08-19T01:07:50;10.45;;;3.35;;
21639;SDS011;10981;45.462;10.974;2022-08-19T01:10:20;8.70;;;3.53;;
21639;SDS011;10981;45.462;10.974;2022-08-19T01:12:53;12.30;;;2.70;;
21639;SDS011;10981;45.462;10.974;2022-08-19T01:15:29;12.23;;;3.50;;
21639;SDS011;10981;45.462;10.974;2022-08-19T01:18:04;8.18;;;3.95;;
21639;SDS011;10981;45.462;10.974;2022-08-19T01:20:35;7.78;;;3.20;;
21639;SDS011;10981;45.462;10.974;2022-08-19T01:23:03;8.48;;;3.05;;
21639;SDS011;10981;45.462;10.974;2022-08-19T01:25:34;7.82;;;3.08;;
21639;SDS011;10981;45.462;10.974;2022-08-19T01:28:18;11.50;;;3.30;;
21639;SDS011;10981;45.462;10.974;2022-08-19T01:31:07;12.75;;;3.30;;
21639;SDS011;10981;45.462;10.974;2022-08-19T01:33:54;9.20;;;3.63;;
21639;SDS011;10981;45.462;10.974;2022-08-19T01:36:25;7.75;;;3.20;;
21639;SDS011;10981;45.462;10.974;2022-08-19T01:38:59;10.48;;;2.90;;
21639;SDS011;10981;45.462;10.974;2022-08-19T01:41:29;11.13;;;3.92;;
21639;SDS011;10981;45.462;10.974;2022-08-19T01:43:59;7.05;;;3.25;;
21639;SDS011;10981;45.462;10.974;2022-08-19T01:46:46;8.27;;;3.15;;
21639;SDS011;10981;45.462;10.974;2022-08-19T01:49:16;7.53;;;3.20;;
21639;SDS011;10981;45.462;10.974;2022-08-19T01:51:47;9.05;;;3.40;;
21639;SDS011;10981;45.462;10.974;2022-08-19T01:54:17;5.65;;;3.13;;
21639;SDS011;10981;45.462;10.974;2022-08-19T01:57:14;11.00;;;3.40;;
21639;SDS011;10981;45.462;10.974;2022-08-19T01:59:41;10.65;;;3.28;;
21639;SDS011;10981;45.462;10.974;2022-08-19T02:02:11;11.38;;;3.45;;
21639;SDS011;10981;45.462;10.974;2022-08-19T02:04:40;7.97;;;3.58;;
21639;SDS011;10981;45.462;10.974;2022-08-19T02:07:09;13.13;;;3.60;;
21639;SDS011;10981;45.462;10.974;2022-08-19T02:09:37;11.68;;;3.13;;
21639;SDS011;10981;45.462;10.974;2022-08-19T02:12:08;14.10;;;3.53;;
21639;SDS011;10981;45.462;10.974;2022-08-19T02:14:36;6.65;;;3.42;;
21639;SDS011;10981;45.462;10.974;2022-08-19T02:17:08;10.10;;;3.97;;
21639;SDS011;10981;45.462;10.974;2022-08-19T02:19:36;7.60;;;3.10;;
21639;SDS011;10981;45.462;10.974;2022-08-19T02:22:07;7.70;;;3.15;;
21639;SDS011;10981;45.462;10.974;2022-08-19T02:24:35;11.20;;;3.30;;
21639;SDS011;10981;45.462;10.974;2022-08-19T02:27:03;9.25;;;3.03;;
21639;SDS011;10981;45.462;10.974;2022-08-19T02:29:32;11.18;;;3.97;;
21639;SDS011;10981;45.462;10.974;2022-08-19T02:32:00;8.57;;;3.10;;
21639;SDS011;10981;45.462;10.974;2022-08-19T02:34:29;8.90;;;3.90;;
21639;SDS011;10981;45.462;10.974;2022-08-19T02:36:57;16.88;;;3.42;;
21639;SDS011;10981;45.462;10.974;2022-08-19T02:39:29;7.53;;;3.38;;
21639;SDS011;10981;45.462;10.974;2022-08-19T02:41:58;7.05;;;2.95;;
21639;SDS011;10981;45.462;10.974;2022-08-19T02:44:26;7.70;;;3.55;;
21639;SDS011;10981;45.462;10.974;2022-08-19T02:46:58;10.13;;;3.78;;
21639;SDS011;10981;45.462;10.974;2022-08-19T02:49:26;6.70;;;4.22;;
21639;SDS011;10981;45.462;10.974;2022-08-19T02:51:54;12.45;;;4.22;;
21639;SDS011;10981;45.462;10.974;2022-08-19T02:54:22;10.02;;;3.97;;
21639;SDS011;10981;45.462;10.974;2022-08-19T02:56:51;8.50;;;3.40;;
21639;SDS011;10981;45.462;10.974;2022-08-19T02:59:19;8.60;;;3.83;;
21639;SDS011;10981;45.462;10.974;2022-08-19T03:01:49;6.15;;;3.58;;
21639;SDS011;10981;45.462;10.974;2022-08-19T03:04:17;9.27;;;3.45;;
21639;SDS011;10981;45.462;10.974;2022-08-19T03:06:46;10.60;;;3.75;;
21639;SDS011;10981;45.462;10.974;2022-08-19T03:09:15;6.10;;;3.25;;
21639;SDS011;10981;45.462;10.974;2022-08-19T03:11:45;8.98;;;3.40;;
21639;SDS011;10981;45.462;10.974;2022-08-19T03:14:15;10.82;;;3.30;;
21639;SDS011;10981;45.462;10.974;2022-08-19T03:16:46;8.73;;;3.42;;
21639;SDS011;10981;45.462;10.974;2022-08-19T03:19:17;11.40;;;3.33;;
21639;SDS011;10981;45.462;10.974;2022-08-19T03:21:48;7.53;;;2.97;;
21639;SDS011;10981;45.462;10.974;2022-08-19T03:24:17;8.18;;;3.38;;
21639;SDS011;10981;45.462;10.974;2022-08-19T03:26:47;5.63;;;3.15;;
21639;SDS011;10981;45.462;10.974;2022-08-19T03:29:18;7.00;;;2.80;;
21639;SDS011;10981;45.462;10.974;2022-08-19T03:31:56;9.98;;;3.58;;
21639;SDS011;10981;45.462;10.974;2022-08-19T03:34:33;8.07;;;2.90;;
21639;SDS011;10981;45.462;10.974;2022-08-19T03:37:05;9.50;;;2.78;;
21639;SDS011;10981;45.462;10.974;2022-08-19T03:39:37;8.82;;;2.58;;
21639;SDS011;10981;45.462;10.974;2022-08-19T03:42:07;7.20;;;3.13;;
21639;SDS011;10981;45.462;10.974;2022-08-19T03:44:57;7.93;;;3.30;;
21639;SDS011;10981;45.462;10.974;2022-08-19T03:47:25;7.25;;;2.60;;
21639;SDS011;10981;45.462;10.974;2022-08-19T03:49:53;4.38;;;2.40;;
21639;SDS011;10981;45.462;10.974;2022-08-19T03:52:22;11.85;;;3.97;;
21639;SDS011;10981;45.462;10.974;2022-08-19T03:54:50;11.75;;;2.45;;
21639;SDS011;10981;45.462;10.974;2022-08-19T03:57:18;11.63;;;3.28;;
21639;SDS011;10981;45.462;10.974;2022-08-19T03:59:53;8.32;;;3.10;;
21639;SDS011;10981;45.462;10.974;2022-08-19T04:02:38;9.73;;;2.72;;
21639;SDS011;10981;45.462;10.974;2022-08-19T04:05:07;10.68;;;2.80;;
21639;SDS011;10981;45.462;10.974;2022-08-19T04:07:36;7.13;;;3.03;;
21639;SDS011;10981;45.462;10.974;2022-08-19T04:10:04;5.32;;;3.33;;
21639;SDS011;10981;45.462;10.974;2022-08-19T04:12:36;7.82;;;2.58;;
21639;SDS011;10981;45.462;10.974;2022-08-19T04:15:07;7.32;;;2.85;;
21639;SDS011;10981;45.462;10.974;2022-08-19T04:17:35;6.22;;;2.47;;
21639;SDS011;10981;45.462;10.974;2022-08-19T04:20:04;7.82;;;3.50;;
21639;SDS011;10981;45.462;10.974;2022-08-19T04:22:33;9.00;;;3.25;;
21639;SDS011;10981;45.462;10.974;2022-08-19T04:25:01;15.18;;;3.42;;
21639;SDS011;10981;45.462;10.974;2022-08-19T04:27:30;9.63;;;3.92;;
21639;SDS011;10981;45.462;10.974;2022-08-19T04:29:58;14.85;;;5.10;;
21639;SDS011;10981;45.462;10.974;2022-08-19T04:32:29;13.27;;;4.68;;
21639;SDS011;10981;45.462;10.974;2022-08-19T04:34:58;6.80;;;3.95;;
21639;SDS011;10981;45.462;10.974;2022-08-19T04:37:45;15.23;;;5.53;;
21639;SDS011;10981;45.462;10.974;2022-08-19T04:40:16;9.57;;;4.20;;
21639;SDS011;10981;45.462;10.974;2022-08-19T04:43:03;12.63;;;4.65;;
21639;SDS011;10981;45.462;10.974;2022-08-19T04:45:31;7.63;;;4.20;;
21639;SDS011;10981;45.462;10.974;2022-08-19T04:48:10;12.50;;;4.05;;
21639;SDS011;10981;45.462;10.974;2022-08-19T04:50:54;13.88;;;5.07;;
21639;SDS011;10981;45.462;10.974;2022-08-19T04:53:27;13.05;;;6.80;;
21639;SDS011;10981;45.462;10.974;2022-08-19T04:56:05;15.50;;;5.40;;
21639;SDS011;10981;45.462;10.974;2022-08-19T04:58:39;11.68;;;5.20;;
21639;SDS011;10981;45.462;10.974;2022-08-19T05:01:11;17.50;;;6.90;;
21639;SDS011;10981;45.462;10.974;2022-08-19T05:03:41;17.67;;;6.60;;
21639;SDS011;10981;45.462;10.974;2022-08-19T05:06:11;20.92;;;6.63;;
21639;SDS011;10981;45.462;10.974;2022-08-19T05:08:42;16.17;;;6.30;;
21639;SDS011;10981;45.462;10.974;2022-08-19T05:11:18;14.90;;;6.30;;
21639;SDS011;10981;45.462;10.974;2022-08-19T05:13:56;19.17;;;7.00;;
21639;SDS011;10981;45.462;10.974;2022-08-19T05:16:25;8.93;;;6.40;;
21639;SDS011;10981;45.462;10.974;2022-08-19T05:18:54;12.05;;;5.47;;
21639;SDS011;10981;45.462;10.974;2022-08-19T05:21:41;12.82;;;5.78;;
21639;SDS011;10981;45.462;10.974;2022-08-19T05:24:29;9.00;;;5.93;;
21639;SDS011;10981;45.462;10.974;2022-08-19T05:27:03;13.30;;;6.55;;
21639;SDS011;10981;45.462;10.974;2022-08-19T05:29:32;10.45;;;5.38;;
21639;SDS011;10981;45.462;10.974;2022-08-19T05:32:03;8.10;;;4.97;;
21639;SDS011;10981;45.462;10.974;2022-08-19T05:34:35;11.50;;;5.55;;
21639;SDS011;10981;45.462;10.974;2022-08-19T05:37:05;10.85;;;5.35;;
21639;SDS011;10981;45.462;10.974;2022-08-19T05:39:35;9.40;;;4.80;;
21639;SDS011;10981;45.462;10.974;2022-08-19T05:42:06;14.35;;;5.43;;
21639;SDS011;10981;45.462;10.974;2022-08-19T05:44:37;13.75;;;5.28;;
21639;SDS011;10981;45.462;10.974;2022-08-19T05:47:11;11.93;;;4.68;;
21639;SDS011;10981;45.462;10.974;2022-08-19T05:49:40;10.30;;;4.35;;
21639;SDS011;10981;45.462;10.974;2022-08-19T05:52:10;12.25;;;5.43;;
21639;SDS011;10981;45.462;10.974;2022-08-19T05:54:45;13.52;;;5.20;;
21639;SDS011;10981;45.462;10.974;2022-08-19T05:57:18;16.33;;;4.35;;
21639;SDS011;10981;45.462;10.974;2022-08-19T05:59:46;12.07;;;4.88;;
21639;SDS011;10981;45.462;10.974;2022-08-19T06:02:25;13.88;;;4.95;;
21639;SDS011;10981;45.462;10.974;2022-08-19T06:04:54;10.77;;;5.07;;
21639;SDS011;10981;45.462;10.974;2022-08-19T06:07:22;14.82;;;5.47;;
21639;SDS011;10981;45.462;10.974;2022-08-19T06:09:51;12.07;;;5.35;;
21639;SDS011;10981;45.462;10.974;2022-08-19T06:12:27;9.40;;;5.05;;
21639;SDS011;10981;45.462;10.974;2022-08-19T06:14:59;9.30;;;4.40;;
21639;SDS011;10981;45.462;10.974;2022-08-19T06:17:37;11.68;;;5.22;;
21639;SDS011;10981;45.462;10.974;2022-08-19T06:20:07;10.32;;;5.10;;
21639;SDS011;10981;45.462;10.974;2022-08-19T06:22:39;10.85;;;4.65;;
21639;SDS011;10981;45.462;10.974;2022-08-19T06:25:09;10.75;;;4.90;;
21639;SDS011;10981;45.462;10.974;2022-08-19T06:27:38;9.80;;;5.28;;
21639;SDS011;10981;45.462;10.974;2022-08-19T06:30:27;10.38;;;4.43;;
21639;SDS011;10981;45.462;10.974;2022-08-19T06:32:55;16.42;;;5.43;;
21639;SDS011;10981;45.462;10.974;2022-08-19T06:35:23;13.90;;;5.57;;
21639;SDS011;10981;45.462;10.974;2022-08-19T06:37:52;14.73;;;5.30;;
21639;SDS011;10981;45.462;10.974;2022-08-19T06:40:21;11.52;;;4.97;;
21639;SDS011;10981;45.462;10.974;2022-08-19T06:42:49;11.27;;;5.43;;
21639;SDS011;10981;45.462;10.974;2022-08-19T06:45:24;10.10;;;5.03;;
21639;SDS011;10981;45.462;10.974;2022-08-19T06:48:02;11.35;;;4.90;;
21639;SDS011;10981;45.462;10.974;2022-08-19T06:50:30;11.70;;;5.68;;
21639;SDS011;10981;45.462;10.974;2022-08-19T06:52:58;11.27;;;5.53;;
21639;SDS011;10981;45.462;10.974;2022-08-19T06:55:30;11.30;;;6.07;;
21639;SDS011;10981;45.462;10.974;2022-08-19T06:58:03;13.35;;;6.22;;
21639;SDS011;10981;45.462;10.974;2022-08-19T07:00:31;12.23;;;6.10;;
21639;SDS011;10981;45.462;10.974;2022-08-19T07:03:00;16.63;;;5.95;;
21639;SDS011;10981;45.462;10.974;2022-08-19T07:05:41;12.93;;;6.18;;
21639;SDS011;10981;45.462;10.974;2022-08-19T07:08:12;15.70;;;6.65;;
21639;SDS011;10981;45.462;10.974;2022-08-19T07:10:44;13.00;;;6.47;;
21639;SDS011;10981;45.462;10.974;2022-08-19T07:13:13;14.03;;;6.70;;
21639;SDS011;10981;45.462;10.974;2022-08-19T07:15:41;13.45;;;6.90;;
21639;SDS011;10981;45.462;10.974;2022-08-19T07:18:09;13.45;;;7.18;;
21639;SDS011;10981;45.462;10.974;2022-08-19T07:20:39;14.75;;;6.53;;
21639;SDS011;10981;45.462;10.974;2022-08-19T07:23:10;15.23;;;6.60;;
21639;SDS011;10981;45.462;10.974;2022-08-19T07:25:42;13.35;;;7.65;;
21639;SDS011;10981;45.462;10.974;2022-08-19T07:28:19;16.40;;;8.50;;
21639;SDS011;10981;45.462;10.974;2022-08-19T07:30:51;13.68;;;8.00;;
21639;SDS011;10981;45.462;10.974;2022-08-19T07:33:21;22.38;;;9.02;;
21639;SDS011;10981;45.462;10.974;2022-08-19T07:35:49;18.58;;;8.50;;
21639;SDS011;10981;45.462;10.974;2022-08-19T07:38:17;15.10;;;8.10;;
21639;SDS011;10981;45.462;10.974;2022-08-19T07:40:45;18.13;;;8.30;;
21639;SDS011;10981;45.462;10.974;2022-08-19T07:43:14;18.45;;;8.40;;
21639;SDS011;10981;45.462;10.974;2022-08-19T07:45:44;15.35;;;7.72;;
21639;SDS011;10981;45.462;10.974;2022-08-19T07:48:12;14.23;;;7.72;;
21639;SDS011;10981;45.462;10.974;2022-08-19T07:50:41;15.90;;;9.75;;
21639;SDS011;10981;45.462;10.974;2022-08-19T07:53:09;22.60;;;9.43;;
21639;SDS011;10981;45.462;10.974;2022-08-19T07:55:39;12.85;;;8.52;;
21639;SDS011;10981;45.462;10.974;2022-08-19T07:58:11;17.25;;;8.50;;
21639;SDS011;10981;45.462;10.974;2022-08-19T08:00:43;16.35;;;9.10;;
21639;SDS011;10981;45.462;10.974;2022-08-19T08:03:15;17.83;;;9.82;;
21639;SDS011;10981;45.462;10.974;2022-08-19T08:05:45;18.95;;;12.73;;
21639;SDS011;10981;45.462;10.974;2022-08-19T08:08:31;23.77;;;15.52;;
21639;SDS011;10981;45.462;10.974;2022-08-19T08:11:19;22.25;;;15.85;;
21639;SDS011;10981;45.462;10.974;2022-08-19T08:13:50;25.17;;;16.95;;
21639;SDS011;10981;45.462;10.974;2022-08-19T08:16:28;33.28;;;14.45;;
21639;SDS011;10981;45.462;10.974;2022-08-19T08:18:58;19.02;;;12.02;;
21639;SDS011;10981;45.462;10.974;2022-08-19T08:21:27;16.77;;;9.30;;
21639;SDS011;10981;45.462;10.974;2022-08-19T08:23:55;19.63;;;8.73;;
21639;SDS011;10981;45.462;10.974;2022-08-19T08:26:28;20.65;;;8.85;;
21639;SDS011;10981;45.462;10.974;2022-08-19T08:29:00;19.27;;;9.38;;
21639;SDS011;10981;45.462;10.974;2022-08-19T08:31:39;15.82;;;8.60;;
21639;SDS011;10981;45.462;10.974;2022-08-19T08:34:09;12.45;;;8.65;;
21639;SDS011;10981;45.462;10.974;2022-08-19T08:36:43;15.55;;;9.00;;
21639;SDS011;10981;45.462;10.974;2022-08-19T08:39:13;14.80;;;8.35;;
21639;SDS011;10981;45.462;10.974;2022-08-19T08:41:49;17.67;;;8.57;;
21639;SDS011;10981;45.462;10.974;2022-08-19T08:47:19;13.63;;;8.00;;
21639;SDS011;10981;45.462;10.974;2022-08-19T08:49:59;14.75;;;8.00;;
21639;SDS011;10981;45.462;10.974;2022-08-19T08:52:35;14.68;;;7.25;;
21639;SDS011;10981;45.462;10.974;2022-08-19T08:55:11;14.82;;;8.00;;
21639;SDS011;10981;45.462;10.974;2022-08-19T09:00:26;12.07;;;7.80;;
21639;SDS011;10981;45.462;10.974;2022-08-19T09:03:00;11.07;;;6.05;;
21639;SDS011;10981;45.462;10.974;2022-08-19T09:05:52;11.70;;;4.80;;
21639;SDS011;10981;45.462;10.974;2022-08-19T09:17:19;8.20;;;4.40;;
21639;SDS011;10981;45.462;10.974;2022-08-19T09:19:59;16.73;;;4.53;;
21639;SDS011;10981;45.462;10.974;2022-08-19T09:22:38;8.57;;;4.55;;
21639;SDS011;10981;45.462;10.974;2022-08-19T09:25:12;9.35;;;4.95;;
21639;SDS011;10981;45.462;10.974;2022-08-19T09:27:42;11.15;;;4.68;;
21639;SDS011;10981;45.462;10.974;2022-08-19T09:30:13;8.38;;;4.43;;
21639;SDS011;10981;45.462;10.974;2022-08-19T09:32:44;9.82;;;4.43;;
21639;SDS011;10981;45.462;10.974;2022-08-19T09:35:20;12.15;;;4.63;;
21639;SDS011;10981;45.462;10.974;2022-08-19T09:37:55;12.50;;;4.95;;
21639;SDS011;10981;45.462;10.974;2022-08-19T09:40:29;9.02;;;4.88;;
21639;SDS011;10981;45.462;10.974;2022-08-19T09:43:04;10.95;;;5.10;;
21639;SDS011;10981;45.462;10.974;2022-08-19T09:45:37;10.57;;;4.90;;
21639;SDS011;10981;45.462;10.974;2022-08-19T09:48:05;9.32;;;4.35;;
21639;SDS011;10981;45.462;10.974;2022-08-19T09:50:37;8.55;;;4.35;;
21639;SDS011;10981;45.462;10.974;2022-08-19T09:53:18;11.65;;;4.93;;
21639;SDS011;10981;45.462;10.974;2022-08-19T09:55:51;6.50;;;5.43;;
21639;SDS011;10981;45.462;10.974;2022-08-19T09:58:25;9.50;;;5.53;;
21639;SDS011;10981;45.462;10.974;2022-08-19T10:00:55;7.90;;;5.22;;
21639;SDS011;10981;45.462;10.974;2022-08-19T10:03:24;8.88;;;5.57;;
21639;SDS011;10981;45.462;10.974;2022-08-19T10:05:57;13.85;;;5.03;;
21639;SDS011;10981;45.462;10.974;2022-08-19T10:08:31;9.95;;;5.22;;
21639;SDS011;10981;45.462;10.974;2022-08-19T10:11:02;5.75;;;5.15;;
21639;SDS011;10981;45.462;10.974;2022-08-19T10:13:51;12.10;;;6.25;;
21639;SDS011;10981;45.462;10.974;2022-08-19T10:16:20;6.90;;;4.95;;
21639;SDS011;10981;45.462;10.974;2022-08-19T10:18:56;8.70;;;4.43;;
21639;SDS011;10981;45.462;10.974;2022-08-19T10:21:26;8.02;;;4.65;;
21639;SDS011;10981;45.462;10.974;2022-08-19T10:23:59;8.32;;;5.03;;
21639;SDS011;10981;45.462;10.974;2022-08-19T10:26:35;7.75;;;4.72;;
21639;SDS011;10981;45.462;10.974;2022-08-19T10:29:08;7.95;;;5.55;;
21639;SDS011;10981;45.462;10.974;2022-08-19T10:31:36;6.53;;;5.35;;
21639;SDS011;10981;45.462;10.974;2022-08-19T10:34:25;13.45;;;5.55;;
21639;SDS011;10981;45.462;10.974;2022-08-19T10:36:55;13.32;;;5.72;;
21639;SDS011;10981;45.462;10.974;2022-08-19T10:39:31;8.85;;;5.00;;
21639;SDS011;10981;45.462;10.974;2022-08-19T10:42:09;9.45;;;5.68;;
21639;SDS011;10981;45.462;10.974;2022-08-19T10:44:40;8.55;;;5.95;;
21639;SDS011;10981;45.462;10.974;2022-08-19T10:47:08;10.23;;;5.50;;
21639;SDS011;10981;45.462;10.974;2022-08-19T10:49:51;11.32;;;5.50;;
21639;SDS011;10981;45.462;10.974;2022-08-19T10:52:40;10.10;;;5.15;;
21639;SDS011;10981;45.462;10.974;2022-08-19T10:55:21;6.38;;;5.32;;
21639;SDS011;10981;45.462;10.974;2022-08-19T10:58:09;9.18;;;5.40;;
21639;SDS011;10981;45.462;10.974;2022-08-19T11:00:39;8.55;;;5.90;;
21639;SDS011;10981;45.462;10.974;2022-08-19T11:03:09;8.10;;;5.47;;
21639;SDS011;10981;45.462;10.974;2022-08-19T11:05:38;9.50;;;6.25;;
21639;SDS011;10981;45.462;10.974;2022-08-19T11:08:07;7.55;;;6.30;;
21639;SDS011;10981;45.462;10.974;2022-08-19T11:10:51;12.23;;;7.15;;
21639;SDS011;10981;45.462;10.974;2022-08-19T11:13:26;9.02;;;7.00;;
21639;SDS011;10981;45.462;10.974;2022-08-19T11:15:56;10.07;;;6.75;;
21639;SDS011;10981;45.462;10.974;2022-08-19T11:18:37;11.40;;;7.13;;
21639;SDS011;10981;45.462;10.974;2022-08-19T11:21:11;10.60;;;6.95;;
21639;SDS011;10981;45.462;10.974;2022-08-19T11:23:44;8.45;;;6.38;;
21639;SDS011;10981;45.462;10.974;2022-08-19T11:26:14;9.07;;;5.43;;
21639;SDS011;10981;45.462;10.974;2022-08-19T11:28:44;7.57;;;5.88;;
21639;SDS011;10981;45.462;10.974;2022-08-19T11:31:13;8.70;;;4.72;;
21639;SDS011;10981;45.462;10.974;2022-08-19T11:33:50;8.63;;;5.82;;
21639;SDS011;10981;45.462;10.974;2022-08-19T11:36:21;7.65;;;6.38;;
21639;SDS011;10981;45.462;10.974;2022-08-19T11:38:49;11.30;;;5.68;;
21639;SDS011;10981;45.462;10.974;2022-08-19T11:41:19;6.50;;;5.53;;
21639;SDS011;10981;45.462;10.974;2022-08-19T11:43:53;7.45;;;5.93;;
21639;SDS011;10981;45.462;10.974;2022-08-19T11:46:23;9.07;;;5.65;;
21639;SDS011;10981;45.462;10.974;2022-08-19T11:48:52;7.97;;;5.65;;
21639;SDS011;10981;45.462;10.974;2022-08-19T11:51:22;9.73;;;5.97;;
21639;SDS011;10981;45.462;10.974;2022-08-19T11:53:52;8.48;;;5.50;;
21639;SDS011;10981;45.462;10.974;2022-08-19T11:56:21;7.55;;;5.75;;
21639;SDS011;10981;45.462;10.974;2022-08-19T11:58:51;10.25;;;6.45;;
21639;SDS011;10981;45.462;10.974;2022-08-19T12:01:20;10.55;;;5.82;;
21639;SDS011;10981;45.462;10.974;2022-08-19T12:03:53;8.38;;;6.65;;
21639;SDS011;10981;45.462;10.974;2022-08-19T12:06:23;10.43;;;6.65;;
21639;SDS011;10981;45.462;10.974;2022-08-19T12:11:24;10.18;;;6.65;;
21639;SDS011;10981;45.462;10.974;2022-08-19T12:13:52;9.38;;;6.40;;
21639;SDS011;10981;45.462;10.974;2022-08-19T12:16:23;12.38;;;8.05;;
21639;SDS011;10981;45.462;10.974;2022-08-19T12:18:56;10.98;;;6.55;;
21639;SDS011;10981;45.462;10.974;2022-08-19T12:21:26;8.23;;;6.32;;
21639;SDS011;10981;45.462;10.974;2022-08-19T12:23:56;11.00;;;7.07;;
21639;SDS011;10981;45.462;10.974;2022-08-19T12:26:26;9.32;;;7.30;;
21639;SDS011;10981;45.462;10.974;2022-08-19T12:28:56;7.75;;;7.00;;
21639;SDS011;10981;45.462;10.974;2022-08-19T12:31:27;12.20;;;7.60;;
21639;SDS011;10981;45.462;10.974;2022-08-19T12:33:56;9.98;;;7.63;;
21639;SDS011;10981;45.462;10.974;2022-08-19T12:36:24;9.10;;;6.07;;
21639;SDS011;10981;45.462;10.974;2022-08-19T12:38:53;7.95;;;5.68;;
21639;SDS011;10981;45.462;10.974;2022-08-19T12:41:21;8.23;;;6.53;;
21639;SDS011;10981;45.462;10.974;2022-08-19T12:43:49;8.57;;;6.43;;
21639;SDS011;10981;45.462;10.974;2022-08-19T12:46:18;9.73;;;6.38;;
21639;SDS011;10981;45.462;10.974;2022-08-19T12:48:52;9.35;;;7.15;;
21639;SDS011;10981;45.462;10.974;2022-08-19T12:51:22;10.27;;;6.55;;
21639;SDS011;10981;45.462;10.974;2022-08-19T12:53:50;7.85;;;6.07;;
21639;SDS011;10981;45.462;10.974;2022-08-19T12:56:18;8.85;;;6.88;;
21639;SDS011;10981;45.462;10.974;2022-08-19T12:58:49;13.60;;;7.07;;
21639;SDS011;10981;45.462;10.974;2022-08-19T13:01:19;8.10;;;4.10;;
21639;SDS011;10981;45.462;10.974;2022-08-19T13:03:49;6.22;;;4.43;;
21639;SDS011;10981;45.462;10.974;2022-08-19T13:06:19;7.55;;;4.68;;
21639;SDS011;10981;45.462;10.974;2022-08-19T13:08:50;5.70;;;4.03;;
21639;SDS011;10981;45.462;10.974;2022-08-19T13:11:25;6.78;;;4.60;;
21639;SDS011;10981;45.462;10.974;2022-08-19T13:13:53;6.75;;;4.63;;
21639;SDS011;10981;45.462;10.974;2022-08-19T13:16:22;6.15;;;3.58;;
21639;SDS011;10981;45.462;10.974;2022-08-19T13:18:50;5.32;;;3.40;;
21639;SDS011;10981;45.462;10.974;2022-08-19T13:21:20;6.90;;;2.90;;
21639;SDS011;10981;45.462;10.974;2022-08-19T13:23:50;4.47;;;2.95;;
21639;SDS011;10981;45.462;10.974;2022-08-19T13:26:20;6.57;;;4.00;;
21639;SDS011;10981;45.462;10.974;2022-08-19T13:28:48;4.72;;;3.80;;
21639;SDS011;10981;45.462;10.974;2022-08-19T13:31:35;7.90;;;3.60;;
21639;SDS011;10981;45.462;10.974;2022-08-19T13:34:26;5.40;;;2.72;;
21639;SDS011;10981;45.462;10.974;2022-08-19T13:36:57;5.95;;;4.32;;
21639;SDS011;10981;45.462;10.974;2022-08-19T13:39:27;7.25;;;4.85;;
21639;SDS011;10981;45.462;10.974;2022-08-19T13:41:55;5.72;;;4.28;;
21639;SDS011;10981;45.462;10.974;2022-08-19T13:44:24;4.72;;;3.28;;
21639;SDS011;10981;45.462;10.974;2022-08-19T13:46:53;7.85;;;3.20;;
21639;SDS011;10981;45.462;10.974;2022-08-19T13:49:21;6.32;;;3.33;;
21639;SDS011;10981;45.462;10.974;2022-08-19T13:51:50;6.53;;;3.67;;
21639;SDS011;10981;45.462;10.974;2022-08-19T13:54:18;7.75;;;4.07;;
21639;SDS011;10981;45.462;10.974;2022-08-19T13:56:46;8.50;;;4.30;;
21639;SDS011;10981;45.462;10.974;2022-08-19T13:59:14;6.55;;;3.75;;
21639;SDS011;10981;45.462;10.974;2022-08-19T14:01:44;6.93;;;3.65;;
21639;SDS011;10981;45.462;10.974;2022-08-19T14:04:12;4.45;;;3.47;;
21639;SDS011;10981;45.462;10.974;2022-08-19T14:06:40;5.55;;;3.72;;
21639;SDS011;10981;45.462;10.974;2022-08-19T14:09:08;4.78;;;2.50;;
21639;SDS011;10981;45.462;10.974;2022-08-19T14:11:37;4.40;;;2.60;;
21639;SDS011;10981;45.462;10.974;2022-08-19T14:14:05;4.40;;;2.95;;
21639;SDS011;10981;45.462;10.974;2022-08-19T14:16:33;5.07;;;2.53;;
21639;SDS011;10981;45.462;10.974;2022-08-19T14:19:01;2.97;;;2.15;;
21639;SDS011;10981;45.462;10.974;2022-08-19T14:21:30;2.50;;;2.08;;
21639;SDS011;10981;45.462;10.974;2022-08-19T14:23:58;4.10;;;2.13;;
21639;SDS011;10981;45.462;10.974;2022-08-19T14:26:29;2.33;;;1.73;;
21639;SDS011;10981;45.462;10.974;2022-08-19T14:28:59;2.75;;;2.00;;
21639;SDS011;10981;45.462;10.974;2022-08-19T14:31:28;3.22;;;1.92;;
21639;SDS011;10981;45.462;10.974;2022-08-19T14:33:57;3.83;;;2.30;;
21639;SDS011;10981;45.462;10.974;2022-08-19T14:36:25;4.43;;;1.85;;
21639;SDS011;10981;45.462;10.974;2022-08-19T14:38:53;2.35;;;1.70;;
21639;SDS011;10981;45.462;10.974;2022-08-19T14:41:22;2.50;;;2.15;;
21639;SDS011;10981;45.462;10.974;2022-08-19T14:43:51;3.95;;;2.75;;
21639;SDS011;10981;45.462;10.974;2022-08-19T14:46:21;5.07;;;1.88;;
21639;SDS011;10981;45.462;10.974;2022-08-19T14:48:54;3.33;;;1.70;;
21639;SDS011;10981;45.462;10.974;2022-08-19T14:51:26;3.40;;;2.10;;
21639;SDS011;10981;45.462;10.974;2022-08-19T14:53:54;5.15;;;3.08;;
21639;SDS011;10981;45.462;10.974;2022-08-19T14:56:24;5.00;;;2.40;;
21639;SDS011;10981;45.462;10.974;2022-08-19T14:58:55;5.72;;;3.22;;
21639;SDS011;10981;45.462;10.974;2022-08-19T15:01:27;4.82;;;2.60;;
21639;SDS011;10981;45.462;10.974;2022-08-19T15:03:55;3.97;;;2.65;;
21639;SDS011;10981;45.462;10.974;2022-08-19T15:06:24;13.50;;;2.80;;
21639;SDS011;10981;45.462;10.974;2022-08-19T15:08:53;4.20;;;2.33;;
21639;SDS011;10981;45.462;10.974;2022-08-19T15:11:27;4.43;;;2.20;;
21639;SDS011;10981;45.462;10.974;2022-08-19T15:13:56;3.58;;;2.42;;